sensor_id;sensor_type;location;lat;lon;timestamp;pressure;altitude;pressure_sealevel;temperature
49785;BMP280;35679;38.732;-121.358;2023-07-09T00:00:45;100419.53;;;26.64
49785;BMP280;35679;38.732;-121.358;2023-07-09T00:03:36;100419.50;;;26.69
49785;BMP280;35679;38.732;-121.358;2023-07-09T00:06:25;100417.88;;;26.68
49785;BMP280;35679;38.732;-121.358;2023-07-09T00:09:16;100418.16;;;26.72
49785;BMP280;35679;38.732;-121.358;2023-07-09T00:12:14;100419.22;;;26.71
49785;BMP280;35679;38.732;-121.358;2023-07-09T00:15:04;100415.16;;;26.73
49785;BMP280;35679;38.732;-121.358;2023-07-09T00:17:54;100415.69;;;26.75
49785;BMP280;35679;38.732;-121.358;2023-07-09T00:20:44;100404.59;;;26.77
49785;BMP280;35679;38.732;-121.358;2023-07-09T00:23:33;100403.22;;;26.79
49785;BMP280;35679;38.732;-121.358;2023-07-09T00:26:22;100404.84;;;26.80
49785;BMP280;35679;38.732;-121.358;2023-07-09T00:29:12;100408.88;;;26.83
49785;BMP280;35679;38.732;-121.358;2023-07-09T00:32:01;100403.19;;;26.84
49785;BMP280;35679;38.732;-121.358;2023-07-09T00:34:51;100395.06;;;26.84
49785;BMP280;35679;38.732;-121.358;2023-07-09T00:37:44;100396.13;;;26.88
49785;BMP280;35679;38.732;-121.358;2023-07-09T00:40:33;100389.91;;;26.88
49785;BMP280;35679;38.732;-121.358;2023-07-09T00:43:23;100400.97;;;26.91
49785;BMP280;35679;38.732;-121.358;2023-07-09T00:49:24;100396.91;;;26.94
49785;BMP280;35679;38.732;-121.358;2023-07-09T00:52:28;100393.09;;;27.00
49785;BMP280;35679;38.732;-121.358;2023-07-09T00:55:27;100385.28;;;26.98
49785;BMP280;35679;38.732;-121.358;2023-07-09T00:58:18;100382.28;;;27.00
49785;BMP280;35679;38.732;-121.358;2023-07-09T01:01:11;100392.81;;;27.01
49785;BMP280;35679;38.732;-121.358;2023-07-09T01:04:04;100383.63;;;27.02
49785;BMP280;35679;38.732;-121.358;2023-07-09T01:06:55;100382.53;;;27.03
49785;BMP280;35679;38.732;-121.358;2023-07-09T01:09:45;100386.03;;;27.04
49785;BMP280;35679;38.732;-121.358;2023-07-09T01:12:35;100394.97;;;27.04
49785;BMP280;35679;38.732;-121.358;2023-07-09T01:15:25;100391.97;;;27.06
49785;BMP280;35679;38.732;-121.358;2023-07-09T01:18:16;100390.66;;;27.03
49785;BMP280;35679;38.732;-121.358;2023-07-09T01:21:09;100391.44;;;27.04
49785;BMP280;35679;38.732;-121.358;2023-07-09T01:24:45;100389.03;;;27.02
49785;BMP280;35679;38.732;-121.358;2023-07-09T01:27:39;100393.34;;;27.03
49785;BMP280;35679;38.732;-121.358;2023-07-09T01:30:33;100394.44;;;27.02
49785;BMP280;35679;38.732;-121.358;2023-07-09T01:33:26;100394.44;;;27.02
49785;BMP280;35679;38.732;-121.358;2023-07-09T01:36:18;100396.88;;;27.04
49785;BMP280;35679;38.732;-121.358;2023-07-09T01:39:12;100394.97;;;27.04
49785;BMP280;35679;38.732;-121.358;2023-07-09T01:42:02;100388.75;;;27.04
49785;BMP280;35679;38.732;-121.358;2023-07-09T01:44:52;100394.97;;;27.04
49785;BMP280;35679;38.732;-121.358;2023-07-09T01:47:43;100397.69;;;27.04
49785;BMP280;35679;38.732;-121.358;2023-07-09T01:50:33;100398.50;;;27.05
49785;BMP280;35679;38.732;-121.358;2023-07-09T01:53:25;100402.00;;;27.05
49785;BMP280;35679;38.732;-121.358;2023-07-09T01:56:15;100396.56;;;27.05
49785;BMP280;35679;38.732;-121.358;2023-07-09T01:59:04;100397.69;;;27.04
49785;BMP280;35679;38.732;-121.358;2023-07-09T02:01:54;100393.88;;;27.05
49785;BMP280;35679;38.732;-121.358;2023-07-09T02:04:51;100401.47;;;27.03
49785;BMP280;35679;38.732;-121.358;2023-07-09T02:07:41;100403.66;;;27.01
49785;BMP280;35679;38.732;-121.358;2023-07-09T02:10:31;100405.81;;;26.99
49785;BMP280;35679;38.732;-121.358;2023-07-09T02:13:20;100411.78;;;27.01
49785;BMP280;35679;38.732;-121.358;2023-07-09T02:16:10;100418.50;;;27.09
49785;BMP280;35679;38.732;-121.358;2023-07-09T02:18:59;100418.25;;;27.05
49785;BMP280;35679;38.732;-121.358;2023-07-09T02:21:49;100426.94;;;27.02
49785;BMP280;35679;38.732;-121.358;2023-07-09T02:24:38;100425.03;;;27.03
49785;BMP280;35679;38.732;-121.358;2023-07-09T02:27:28;100435.88;;;27.03
49785;BMP280;35679;38.732;-121.358;2023-07-09T02:30:18;100436.69;;;27.03
49785;BMP280;35679;38.732;-121.358;2023-07-09T02:33:07;100440.22;;;26.94
49785;BMP280;35679;38.732;-121.358;2023-07-09T02:35:56;100443.25;;;26.87
49785;BMP280;35679;38.732;-121.358;2023-07-09T02:38:46;100442.13;;;26.93
49785;BMP280;35679;38.732;-121.358;2023-07-09T02:41:36;100440.50;;;26.92
49785;BMP280;35679;38.732;-121.358;2023-07-09T02:44:26;100443.72;;;26.94
49785;BMP280;35679;38.732;-121.358;2023-07-09T02:47:22;100448.88;;;26.96
49785;BMP280;35679;38.732;-121.358;2023-07-09T02:50:12;100446.97;;;26.96
49785;BMP280;35679;38.732;-121.358;2023-07-09T02:53:02;100446.19;;;26.96
49785;BMP280;35679;38.732;-121.358;2023-07-09T02:55:51;100457.56;;;26.98
49785;BMP280;35679;38.732;-121.358;2023-07-09T02:58:41;100453.78;;;26.99
49785;BMP280;35679;38.732;-121.358;2023-07-09T03:01:30;100456.75;;;26.97
49785;BMP280;35679;38.732;-121.358;2023-07-09T03:04:21;100446.19;;;26.96
49785;BMP280;35679;38.732;-121.358;2023-07-09T03:07:11;100453.47;;;26.95
49785;BMP280;35679;38.732;-121.358;2023-07-09T03:10:01;100448.34;;;26.94
49785;BMP280;35679;38.732;-121.358;2023-07-09T03:12:50;100457.03;;;26.91
49785;BMP280;35679;38.732;-121.358;2023-07-09T03:15:40;100451.88;;;26.89
49785;BMP280;35679;38.732;-121.358;2023-07-09T03:18:29;100461.13;;;26.88
49785;BMP280;35679;38.732;-121.358;2023-07-09T03:21:19;100466.28;;;26.85
49785;BMP280;35679;38.732;-121.358;2023-07-09T03:24:08;100459.53;;;26.82
49785;BMP280;35679;38.732;-121.358;2023-07-09T03:26:58;100467.66;;;26.82
49785;BMP280;35679;38.732;-121.358;2023-07-09T03:29:47;100467.13;;;26.75
49785;BMP280;35679;38.732;-121.358;2023-07-09T03:32:37;100478.75;;;26.76
49785;BMP280;35679;38.732;-121.358;2023-07-09T03:35:28;100468.78;;;26.71
49785;BMP280;35679;38.732;-121.358;2023-07-09T03:38:18;100478.78;;;26.71
49785;BMP280;35679;38.732;-121.358;2023-07-09T03:41:07;100471.78;;;26.65
49785;BMP280;35679;38.732;-121.358;2023-07-09T03:43:57;100472.03;;;26.63
49785;BMP280;35679;38.732;-121.358;2023-07-09T03:46:46;100477.47;;;26.58
49785;BMP280;35679;38.732;-121.358;2023-07-09T03:49:36;100478.31;;;26.59
49785;BMP280;35679;38.732;-121.358;2023-07-09T03:52:25;100481.56;;;26.56
49785;BMP280;35679;38.732;-121.358;2023-07-09T03:55:15;100488.03;;;26.55
49785;BMP280;35679;38.732;-121.358;2023-07-09T03:58:04;100487.00;;;26.51
49785;BMP280;35679;38.732;-121.358;2023-07-09T04:00:54;100492.97;;;26.48
49785;BMP280;35679;38.732;-121.358;2023-07-09T04:03:46;100497.28;;;26.49
49785;BMP280;35679;38.732;-121.358;2023-07-09T04:06:35;100504.09;;;26.42
49785;BMP280;35679;38.732;-121.358;2023-07-09T04:09:25;100508.94;;;26.40
49785;BMP280;35679;38.732;-121.358;2023-07-09T04:12:14;100516.81;;;26.36
49785;BMP280;35679;38.732;-121.358;2023-07-09T04:15:04;100517.06;;;26.30
49785;BMP280;35679;38.732;-121.358;2023-07-09T04:17:54;100521.13;;;26.27
49785;BMP280;35679;38.732;-121.358;2023-07-09T04:20:48;100534.66;;;26.22
49785;BMP280;35679;38.732;-121.358;2023-07-09T04:23:38;100529.53;;;26.26
49785;BMP280;35679;38.732;-121.358;2023-07-09T04:26:28;100534.38;;;26.24
49785;BMP280;35679;38.732;-121.358;2023-07-09T04:29:17;100541.94;;;26.22
49785;BMP280;35679;38.732;-121.358;2023-07-09T04:32:11;100539.78;;;26.19
49785;BMP280;35679;38.732;-121.358;2023-07-09T04:35:03;100545.78;;;26.11
49785;BMP280;35679;38.732;-121.358;2023-07-09T04:37:55;100554.13;;;26.14
49785;BMP280;35679;38.732;-121.358;2023-07-09T04:40:46;100559.81;;;26.13
49785;BMP280;35679;38.732;-121.358;2023-07-09T04:43:35;100560.09;;;26.06
49785;BMP280;35679;38.732;-121.358;2023-07-09T04:46:25;100559.53;;;25.99
49785;BMP280;35679;38.732;-121.358;2023-07-09T04:49:15;100564.16;;;25.99
49785;BMP280;35679;38.732;-121.358;2023-07-09T04:52:04;100575.50;;;26.06
49785;BMP280;35679;38.732;-121.358;2023-07-09T04:54:54;100571.44;;;25.93
49785;BMP280;35679;38.732;-121.358;2023-07-09T04:57:45;100570.63;;;25.93
49785;BMP280;35679;38.732;-121.358;2023-07-09T05:00:35;100576.03;;;25.83
49785;BMP280;35679;38.732;-121.358;2023-07-09T05:03:24;100581.16;;;25.80
49785;BMP280;35679;38.732;-121.358;2023-07-09T05:06:14;100583.34;;;25.87
49785;BMP280;35679;38.732;-121.358;2023-07-09T05:09:04;100592.78;;;25.80
49785;BMP280;35679;38.732;-121.358;2023-07-09T05:11:53;100595.22;;;25.72
49785;BMP280;35679;38.732;-121.358;2023-07-09T05:14:42;100603.53;;;25.65
49785;BMP280;35679;38.732;-121.358;2023-07-09T05:17:32;100607.59;;;25.68
49785;BMP280;35679;38.732;-121.358;2023-07-09T05:20:21;100605.47;;;25.70
49785;BMP280;35679;38.732;-121.358;2023-07-09T05:23:14;100597.94;;;25.72
49785;BMP280;35679;38.732;-121.358;2023-07-09T05:26:04;100599.53;;;25.73
49785;BMP280;35679;38.732;-121.358;2023-07-09T05:28:54;100599.50;;;25.68
49785;BMP280;35679;38.732;-121.358;2023-07-09T05:31:45;100603.81;;;25.64
49785;BMP280;35679;38.732;-121.358;2023-07-09T05:34:35;100609.22;;;25.64
49785;BMP280;35679;38.732;-121.358;2023-07-09T05:37:24;100610.84;;;25.60
49785;BMP280;35679;38.732;-121.358;2023-07-09T05:40:14;100611.63;;;25.55
49785;BMP280;35679;38.732;-121.358;2023-07-09T05:43:03;100611.59;;;25.45
49785;BMP280;35679;38.732;-121.358;2023-07-09T05:45:52;100611.09;;;25.48
49785;BMP280;35679;38.732;-121.358;2023-07-09T05:48:42;100613.72;;;25.38
49785;BMP280;35679;38.732;-121.358;2023-07-09T05:51:31;100621.63;;;25.45
49785;BMP280;35679;38.732;-121.358;2023-07-09T05:54:21;100614.59;;;25.44
49785;BMP280;35679;38.732;-121.358;2023-07-09T05:57:10;100611.59;;;25.40
49785;BMP280;35679;38.732;-121.358;2023-07-09T06:00:00;100608.34;;;25.38
49785;BMP280;35679;38.732;-121.358;2023-07-09T06:02:59;100612.66;;;25.34
49785;BMP280;35679;38.732;-121.358;2023-07-09T06:05:50;100609.94;;;25.29
49785;BMP280;35679;38.732;-121.358;2023-07-09T06:08:42;100609.63;;;25.21
49785;BMP280;35679;38.732;-121.358;2023-07-09T06:11:31;100606.41;;;25.24
49785;BMP280;35679;38.732;-121.358;2023-07-09T06:14:21;100606.63;;;25.13
49785;BMP280;35679;38.732;-121.358;2023-07-09T06:17:10;100613.66;;;25.18
49785;BMP280;35679;38.732;-121.358;2023-07-09T06:20:00;100613.97;;;25.22
49785;BMP280;35679;38.732;-121.358;2023-07-09T06:22:49;100610.44;;;25.16
49785;BMP280;35679;38.732;-121.358;2023-07-09T06:25:38;100608.44;;;25.02
49785;BMP280;35679;38.732;-121.358;2023-07-09T06:28:28;100616.81;;;24.96
49785;BMP280;35679;38.732;-121.358;2023-07-09T06:31:18;100615.19;;;25.00
49785;BMP280;35679;38.732;-121.358;2023-07-09T06:34:09;100613.56;;;24.99
49785;BMP280;35679;38.732;-121.358;2023-07-09T06:36:59;100614.63;;;24.98
49785;BMP280;35679;38.732;-121.358;2023-07-09T06:39:48;100615.19;;;25.00
49785;BMP280;35679;38.732;-121.358;2023-07-09T06:42:38;100613.03;;;24.97
49785;BMP280;35679;38.732;-121.358;2023-07-09T06:45:57;100612.47;;;24.95
49785;BMP280;35679;38.732;-121.358;2023-07-09T06:48:47;100628.94;;;24.93
49785;BMP280;35679;38.732;-121.358;2023-07-09T06:51:36;100624.59;;;24.92
49785;BMP280;35679;38.732;-121.358;2023-07-09T06:54:25;100622.69;;;24.88
49785;BMP280;35679;38.732;-121.358;2023-07-09T06:57:15;100633.19;;;24.84
49785;BMP280;35679;38.732;-121.358;2023-07-09T07:00:05;100625.09;;;24.89
49785;BMP280;35679;38.732;-121.358;2023-07-09T07:02:55;100632.94;;;24.86
49785;BMP280;35679;38.732;-121.358;2023-07-09T07:05:46;100641.50;;;24.73
49785;BMP280;35679;38.732;-121.358;2023-07-09T07:08:37;100630.66;;;24.68
49785;BMP280;35679;38.732;-121.358;2023-07-09T07:11:26;100638.19;;;24.66
49785;BMP280;35679;38.732;-121.358;2023-07-09T07:14:18;100643.53;;;24.56
49785;BMP280;35679;38.732;-121.358;2023-07-09T07:17:08;100643.06;;;24.64
49785;BMP280;35679;38.732;-121.358;2023-07-09T07:19:57;100647.81;;;24.52
49785;BMP280;35679;38.732;-121.358;2023-07-09T07:22:47;100644.78;;;24.44
49785;BMP280;35679;38.732;-121.358;2023-07-09T07:25:36;100647.53;;;24.48
49785;BMP280;35679;38.732;-121.358;2023-07-09T07:28:26;100654.03;;;24.52
49785;BMP280;35679;38.732;-121.358;2023-07-09T07:31:15;100655.91;;;24.52
49785;BMP280;35679;38.732;-121.358;2023-07-09T07:34:05;100652.13;;;24.48
49785;BMP280;35679;38.732;-121.358;2023-07-09T07:36:55;100651.28;;;24.47
49785;BMP280;35679;38.732;-121.358;2023-07-09T07:39:44;100649.88;;;24.40
49785;BMP280;35679;38.732;-121.358;2023-07-09T07:42:34;100651.19;;;24.38
49785;BMP280;35679;38.732;-121.358;2023-07-09T07:45:24;100641.22;;;24.38
49785;BMP280;35679;38.732;-121.358;2023-07-09T07:48:15;100645.31;;;24.41
49785;BMP280;35679;38.732;-121.358;2023-07-09T07:51:04;100650.38;;;24.37
49785;BMP280;35679;38.732;-121.358;2023-07-09T07:53:54;100647.13;;;24.35
49785;BMP280;35679;38.732;-121.358;2023-07-09T07:56:44;100653.84;;;24.33
49785;BMP280;35679;38.732;-121.358;2023-07-09T07:59:33;100646.56;;;24.33
49785;BMP280;35679;38.732;-121.358;2023-07-09T08:02:24;100653.56;;;24.29
49785;BMP280;35679;38.732;-121.358;2023-07-09T08:05:13;100656.41;;;24.18
49785;BMP280;35679;38.732;-121.358;2023-07-09T08:08:03;100660.47;;;24.20
49785;BMP280;35679;38.732;-121.358;2023-07-09T08:11:03;100658.84;;;24.19
49785;BMP280;35679;38.732;-121.358;2023-07-09T08:13:56;100656.00;;;24.04
49785;BMP280;35679;38.732;-121.358;2023-07-09T08:16:46;100657.16;;;24.08
49785;BMP280;35679;38.732;-121.358;2023-07-09T08:19:46;100661.16;;;24.06
49785;BMP280;35679;38.732;-121.358;2023-07-09T08:22:36;100652.81;;;24.07
49785;BMP280;35679;38.732;-121.358;2023-07-09T08:25:27;100659.81;;;24.03
49785;BMP280;35679;38.732;-121.358;2023-07-09T08:28:18;100655.22;;;24.04
49785;BMP280;35679;38.732;-121.358;2023-07-09T08:31:08;100642.75;;;23.98
49785;BMP280;35679;38.732;-121.358;2023-07-09T08:33:58;100653.28;;;23.99
49785;BMP280;35679;38.732;-121.358;2023-07-09T08:36:47;100654.28;;;23.93
49785;BMP280;35679;38.732;-121.358;2023-07-09T08:39:36;100658.63;;;23.94
49785;BMP280;35679;38.732;-121.358;2023-07-09T08:42:41;100651.38;;;23.95
49785;BMP280;35679;38.732;-121.358;2023-07-09T08:46:16;100654.00;;;23.90
49785;BMP280;35679;38.732;-121.358;2023-07-09T08:49:19;100654.25;;;23.88
49785;BMP280;35679;38.732;-121.358;2023-07-09T08:52:41;100658.47;;;23.79
49785;BMP280;35679;38.732;-121.358;2023-07-09T08:55:31;100663.91;;;23.84
49785;BMP280;35679;38.732;-121.358;2023-07-09T08:58:30;100657.16;;;23.82
49785;BMP280;35679;38.732;-121.358;2023-07-09T09:04:21;100673.00;;;23.78
49785;BMP280;35679;38.732;-121.358;2023-07-09T09:07:41;100663.72;;;23.70
49785;BMP280;35679;38.732;-121.358;2023-07-09T09:10:47;100668.88;;;23.71
49785;BMP280;35679;38.732;-121.358;2023-07-09T09:13:38;100671.09;;;23.74
49785;BMP280;35679;38.732;-121.358;2023-07-09T09:16:32;100661.81;;;23.70
49785;BMP280;35679;38.732;-121.358;2023-07-09T09:19:41;100664.78;;;23.69
49785;BMP280;35679;38.732;-121.358;2023-07-09T09:22:57;100661.53;;;23.67
49785;BMP280;35679;38.732;-121.358;2023-07-09T09:25:51;100660.72;;;23.66
49785;BMP280;35679;38.732;-121.358;2023-07-09T09:29:00;100658.53;;;23.63
49785;BMP280;35679;38.732;-121.358;2023-07-09T09:31:55;100653.91;;;23.59
49785;BMP280;35679;38.732;-121.358;2023-07-09T09:34:45;100662.81;;;23.59
49785;BMP280;35679;38.732;-121.358;2023-07-09T09:37:34;100659.22;;;23.54
49785;BMP280;35679;38.732;-121.358;2023-07-09T09:40:27;100665.69;;;23.53
49785;BMP280;35679;38.732;-121.358;2023-07-09T09:43:19;100673.22;;;23.51
49785;BMP280;35679;38.732;-121.358;2023-07-09T09:46:18;100678.34;;;23.52
49785;BMP280;35679;38.732;-121.358;2023-07-09T09:49:10;100676.13;;;23.49
49785;BMP280;35679;38.732;-121.358;2023-07-09T09:52:02;100673.44;;;23.49
49785;BMP280;35679;38.732;-121.358;2023-07-09T09:54:56;100676.38;;;23.48
49785;BMP280;35679;38.732;-121.358;2023-07-09T09:57:52;100671.78;;;23.43
49785;BMP280;35679;38.732;-121.358;2023-07-09T10:00:51;100668.50;;;23.41
49785;BMP280;35679;38.732;-121.358;2023-07-09T10:03:41;100680.84;;;23.37
49785;BMP280;35679;38.732;-121.358;2023-07-09T10:06:39;100679.53;;;23.40
49785;BMP280;35679;38.732;-121.358;2023-07-09T10:12:59;100684.88;;;23.35
49785;BMP280;35679;38.732;-121.358;2023-07-09T10:16:32;100688.31;;;23.30
49785;BMP280;35679;38.732;-121.358;2023-07-09T10:22:50;100682.66;;;23.32
49785;BMP280;35679;38.732;-121.358;2023-07-09T10:28:55;100685.28;;;23.27
49785;BMP280;35679;38.732;-121.358;2023-07-09T10:35:10;100686.22;;;23.16
49785;BMP280;35679;38.732;-121.358;2023-07-09T10:38:19;100688.97;;;23.21
49785;BMP280;35679;38.732;-121.358;2023-07-09T10:41:11;100687.38;;;23.20
49785;BMP280;35679;38.732;-121.358;2023-07-09T10:47:09;100681.91;;;23.15
49785;BMP280;35679;38.732;-121.358;2023-07-09T10:50:04;100690.72;;;23.11
49785;BMP280;35679;38.732;-121.358;2023-07-09T10:52:59;100683.13;;;23.08
49785;BMP280;35679;38.732;-121.358;2023-07-09T10:56:05;100682.59;;;23.06
49785;BMP280;35679;38.732;-121.358;2023-07-09T10:59:30;100677.47;;;23.04
49785;BMP280;35679;38.732;-121.358;2023-07-09T11:02:26;100682.25;;;23.02
49785;BMP280;35679;38.732;-121.358;2023-07-09T11:05:16;100679.00;;;23.00
49785;BMP280;35679;38.732;-121.358;2023-07-09T11:08:30;100692.34;;;22.95
49785;BMP280;35679;38.732;-121.358;2023-07-09T11:11:51;100685.44;;;22.99
49785;BMP280;35679;38.732;-121.358;2023-07-09T11:14:53;100692.34;;;22.95
49785;BMP280;35679;38.732;-121.358;2023-07-09T11:17:45;100686.69;;;22.92
49785;BMP280;35679;38.732;-121.358;2023-07-09T11:20:41;100684.19;;;22.90
49785;BMP280;35679;38.732;-121.358;2023-07-09T11:23:47;100684.72;;;22.87
49785;BMP280;35679;38.732;-121.358;2023-07-09T11:26:47;100684.47;;;22.89
49785;BMP280;35679;38.732;-121.358;2023-07-09T11:29:46;100696.06;;;22.89
49785;BMP280;35679;38.732;-121.358;2023-07-09T11:32:45;100701.69;;;21.67
49785;BMP280;35679;38.732;-121.358;2023-07-09T11:35:53;100700.28;;;21.64
49785;BMP280;35679;38.732;-121.358;2023-07-09T11:38:45;100702.88;;;21.59
49785;BMP280;35679;38.732;-121.358;2023-07-09T11:41:42;100705.06;;;21.62
49785;BMP280;35679;38.732;-121.358;2023-07-09T11:44:46;100709.84;;;21.72
49785;BMP280;35679;38.732;-121.358;2023-07-09T11:47:46;100700.59;;;21.68
49785;BMP280;35679;38.732;-121.358;2023-07-09T11:50:43;100707.09;;;21.32
49785;BMP280;35679;38.732;-121.358;2023-07-09T11:56:33;100703.84;;;21.30
49785;BMP280;35679;38.732;-121.358;2023-07-09T11:59:23;100709.09;;;21.25
49785;BMP280;35679;38.732;-121.358;2023-07-09T12:02:20;100704.31;;;21.27
49785;BMP280;35679;38.732;-121.358;2023-07-09T12:05:10;100709.00;;;21.20
49785;BMP280;35679;38.732;-121.358;2023-07-09T12:08:00;100708.19;;;21.20
49785;BMP280;35679;38.732;-121.358;2023-07-09T12:10:49;100707.41;;;20.97
49785;BMP280;35679;38.732;-121.358;2023-07-09T12:13:39;100718.22;;;21.02
49785;BMP280;35679;38.732;-121.358;2023-07-09T12:16:31;100724.06;;;20.99
49785;BMP280;35679;38.732;-121.358;2023-07-09T12:19:24;100715.56;;;21.02
49785;BMP280;35679;38.732;-121.358;2023-07-09T12:22:19;100726.97;;;20.97
49785;BMP280;35679;38.732;-121.358;2023-07-09T12:25:20;100730.47;;;20.86
49785;BMP280;35679;38.732;-121.358;2023-07-09T12:28:15;100724.44;;;20.79
49785;BMP280;35679;38.732;-121.358;2023-07-09T12:31:13;100734.44;;;20.84
49785;BMP280;35679;38.732;-121.358;2023-07-09T12:34:03;100738.75;;;20.85
49785;BMP280;35679;38.732;-121.358;2023-07-09T12:36:53;100736.19;;;20.78
49785;BMP280;35679;38.732;-121.358;2023-07-09T12:39:44;100742.38;;;20.79
49785;BMP280;35679;38.732;-121.358;2023-07-09T12:42:35;100742.59;;;20.77
49785;BMP280;35679;38.732;-121.358;2023-07-09T12:45:27;100744.28;;;20.72
49785;BMP280;35679;38.732;-121.358;2023-07-09T12:48:23;100746.53;;;20.63
49785;BMP280;35679;38.732;-121.358;2023-07-09T12:51:15;100750.69;;;20.59
49785;BMP280;35679;38.732;-121.358;2023-07-09T12:54:17;100743.84;;;20.63
49785;BMP280;35679;38.732;-121.358;2023-07-09T12:57:15;100751.28;;;20.50
49785;BMP280;35679;38.732;-121.358;2023-07-09T13:00:14;100760.25;;;20.55
49785;BMP280;35679;38.732;-121.358;2023-07-09T13:03:13;100753.56;;;20.35
49785;BMP280;35679;38.732;-121.358;2023-07-09T13:06:06;100753.22;;;20.43
49785;BMP280;35679;38.732;-121.358;2023-07-09T13:08:59;100764.50;;;20.34
49785;BMP280;35679;38.732;-121.358;2023-07-09T13:11:49;100767.38;;;20.21
49785;BMP280;35679;38.732;-121.358;2023-07-09T13:14:38;100768.44;;;20.31
49785;BMP280;35679;38.732;-121.358;2023-07-09T13:17:30;100769.19;;;20.38
49785;BMP280;35679;38.732;-121.358;2023-07-09T13:20:20;100778.00;;;20.27
49785;BMP280;35679;38.732;-121.358;2023-07-09T13:23:15;100776.47;;;20.20
49785;BMP280;35679;38.732;-121.358;2023-07-09T13:26:06;100783.06;;;20.35
49785;BMP280;35679;38.732;-121.358;2023-07-09T13:28:56;100785.63;;;20.12
49785;BMP280;35679;38.732;-121.358;2023-07-09T13:31:46;100782.75;;;20.25
49785;BMP280;35679;38.732;-121.358;2023-07-09T13:34:36;100787.31;;;20.25
49785;BMP280;35679;38.732;-121.358;2023-07-09T13:37:27;100791.13;;;20.17
49785;BMP280;35679;38.732;-121.358;2023-07-09T13:40:16;100791.72;;;20.19
49785;BMP280;35679;38.732;-121.358;2023-07-09T13:43:35;100798.44;;;20.10
49785;BMP280;35679;38.732;-121.358;2023-07-09T13:46:22;100793.66;;;20.12
49785;BMP280;35679;38.732;-121.358;2023-07-09T13:49:19;100804.53;;;20.17
49785;BMP280;35679;38.732;-121.358;2023-07-09T13:52:15;100800.69;;;20.13
49785;BMP280;35679;38.732;-121.358;2023-07-09T13:55:07;100813.03;;;20.14
49785;BMP280;35679;38.732;-121.358;2023-07-09T13:57:58;100806.69;;;20.09
49785;BMP280;35679;38.732;-121.358;2023-07-09T14:00:49;100814.31;;;20.12
49785;BMP280;35679;38.732;-121.358;2023-07-09T14:03:39;100812.53;;;20.06
49785;BMP280;35679;38.732;-121.358;2023-07-09T14:06:30;100818.81;;;20.11
49785;BMP280;35679;38.732;-121.358;2023-07-09T14:09:19;100822.63;;;20.22
49785;BMP280;35679;38.732;-121.358;2023-07-09T14:12:10;100819.50;;;20.07
49785;BMP280;35679;38.732;-121.358;2023-07-09T14:15:01;100830.66;;;20.04
49785;BMP280;35679;38.732;-121.358;2023-07-09T14:17:51;100832.44;;;19.92
49785;BMP280;35679;38.732;-121.358;2023-07-09T14:20:41;100834.16;;;20.04
49785;BMP280;35679;38.732;-121.358;2023-07-09T14:23:30;100841.00;;;20.00
49785;BMP280;35679;38.732;-121.358;2023-07-09T14:26:23;100843.47;;;20.02
49785;BMP280;35679;38.732;-121.358;2023-07-09T14:29:12;100834.75;;;19.88
49785;BMP280;35679;38.732;-121.358;2023-07-09T14:32:07;100841.31;;;19.92
49785;BMP280;35679;38.732;-121.358;2023-07-09T14:35:14;100843.53;;;19.95
49785;BMP280;35679;38.732;-121.358;2023-07-09T14:38:16;100845.66;;;19.87
49785;BMP280;35679;38.732;-121.358;2023-07-09T14:41:20;100849.75;;;19.89
49785;BMP280;35679;38.732;-121.358;2023-07-09T14:44:23;100846.72;;;19.86
49785;BMP280;35679;38.732;-121.358;2023-07-09T14:47:19;100857.59;;;19.91
49785;BMP280;35679;38.732;-121.358;2023-07-09T14:50:09;100868.13;;;19.86
49785;BMP280;35679;38.732;-121.358;2023-07-09T14:53:03;100868.81;;;19.81
49785;BMP280;35679;38.732;-121.358;2023-07-09T14:55:53;100867.31;;;19.85
49785;BMP280;35679;38.732;-121.358;2023-07-09T14:58:43;100876.00;;;19.81
49785;BMP280;35679;38.732;-121.358;2023-07-09T15:01:32;100876.53;;;19.89
49785;BMP280;35679;38.732;-121.358;2023-07-09T15:07:12;100882.31;;;19.93
49785;BMP280;35679;38.732;-121.358;2023-07-09T15:10:03;100891.91;;;20.00
49785;BMP280;35679;38.732;-121.358;2023-07-09T15:12:56;100891.38;;;19.92
49785;BMP280;35679;38.732;-121.358;2023-07-09T15:15:46;100894.75;;;19.81
49785;BMP280;35679;38.732;-121.358;2023-07-09T15:18:36;100895.75;;;19.86
49785;BMP280;35679;38.732;-121.358;2023-07-09T15:21:27;100907.41;;;19.98
49785;BMP280;35679;38.732;-121.358;2023-07-09T15:24:30;100902.25;;;19.97
49785;BMP280;35679;38.732;-121.358;2023-07-09T15:27:20;100906.41;;;19.93
49785;BMP280;35679;38.732;-121.358;2023-07-09T15:30:18;100906.94;;;20.01
49785;BMP280;35679;38.732;-121.358;2023-07-09T15:33:19;100916.16;;;20.05
49785;BMP280;35679;38.732;-121.358;2023-07-09T15:36:11;100919.28;;;20.02
49785;BMP280;35679;38.732;-121.358;2023-07-09T15:39:01;100921.50;;;20.05
49785;BMP280;35679;38.732;-121.358;2023-07-09T15:41:50;100918.91;;;19.99
49785;BMP280;35679;38.732;-121.358;2023-07-09T15:44:40;100919.72;;;19.99
49785;BMP280;35679;38.732;-121.358;2023-07-09T15:47:30;100913.94;;;20.02
49785;BMP280;35679;38.732;-121.358;2023-07-09T15:50:25;100914.97;;;20.01
49785;BMP280;35679;38.732;-121.358;2023-07-09T15:53:17;100911.84;;;20.04
49785;BMP280;35679;38.732;-121.358;2023-07-09T15:59:01;100915.56;;;20.21
49785;BMP280;35679;38.732;-121.358;2023-07-09T16:01:52;100924.34;;;20.10
49785;BMP280;35679;38.732;-121.358;2023-07-09T16:04:44;100916.75;;;20.07
49785;BMP280;35679;38.732;-121.358;2023-07-09T16:07:33;100925.44;;;20.03
49785;BMP280;35679;38.732;-121.358;2023-07-09T16:10:24;100934.75;;;20.00
49785;BMP280;35679;38.732;-121.358;2023-07-09T16:13:24;100935.38;;;20.02